Time;durP1;ratioP1;P1;durP2;ratioP2;P2;SDS_P1;SDS_P2;PMS_P1;PMS_P2;Temp;Humidity;BMP_temperature;BMP_pressure;BME280_temperature;BME280_humidity;BME280_pressure;Samples;Min_cycle;Max_cycle;Signal;HPM_P1;HPM_P2
2021/04/17 00:00:25;;;;;;;9.57;4.53;;;6.40;65.50;;;;;;5075155;28;20036;-70
2021/04/17 00:02:51;;;;;;;8.77;3.97;;;6.30;65.80;;;;;;5073732;28;20048;-70
2021/04/17 00:05:17;;;;;;;7.43;4.28;;;6.30;65.80;;;;;;5073612;28;20407;-70
2021/04/17 00:07:42;;;;;;;6.72;3.53;;;6.30;66.00;;;;;;5074836;28;20116;-70
2021/04/17 00:10:09;;;;;;;7.03;3.72;;;6.20;66.30;;;;;;5073413;28;20490;-71
2021/04/17 00:12:35;;;;;;;5.97;3.75;;;6.20;66.10;;;;;;5074873;28;20378;-70
2021/04/17 00:15:00;;;;;;;7.57;4.03;;;6.20;66.50;;;;;;5074683;28;20096;-70
2021/04/17 00:17:28;;;;;;;6.90;4.10;;;6.10;66.30;;;;;;5075145;28;20099;-70
2021/04/17 00:19:54;;;;;;;7.30;3.92;;;6.10;66.50;;;;;;5073417;28;20392;-70
2021/04/17 00:22:21;;;;;;;6.38;4.28;;;6.10;66.60;;;;;;5073514;28;20376;-71
2021/04/17 00:24:46;;;;;;;6.82;3.65;;;6.20;66.80;;;;;;5073440;28;20028;-72
2021/04/17 00:27:12;;;;;;;8.55;3.88;;;6.10;67.00;;;;;;5073357;28;20035;-70
2021/04/17 00:29:38;;;;;;;8.27;3.97;;;6.10;66.90;;;;;;5073228;28;20043;-71
2021/04/17 00:32:07;;;;;;;8.35;3.90;;;6.10;66.80;;;;;;5075170;28;20021;-70
2021/04/17 00:34:32;;;;;;;10.63;3.47;;;6.10;67.00;;;;;;5074197;28;20045;-70
2021/04/17 00:36:58;;;;;;;8.50;3.90;;;6.00;66.80;;;;;;5074747;28;20357;-69
2021/04/17 00:39:24;;;;;;;5.88;3.30;;;6.00;66.90;;;;;;5074409;28;20070;-70
2021/04/17 00:41:50;;;;;;;8.98;4.00;;;6.00;67.00;;;;;;5072768;28;20032;-70
2021/04/17 00:44:16;;;;;;;6.13;3.30;;;6.00;67.30;;;;;;5073457;28;20086;-70
2021/04/17 00:46:41;;;;;;;12.07;4.05;;;6.00;67.30;;;;;;5074384;28;20020;-70
2021/04/17 00:49:12;;;;;;;6.55;3.17;;;5.90;67.50;;;;;;5074085;28;20115;-70
2021/04/17 00:51:39;;;;;;;5.53;3.42;;;5.90;68.30;;;;;;5072467;28;20123;-70
2021/04/17 00:54:06;;;;;;;5.63;3.25;;;5.90;67.50;;;;;;5073793;28;20504;-70
2021/04/17 00:56:32;;;;;;;6.68;3.33;;;5.90;67.40;;;;;;5072371;28;20086;-70
2021/04/17 00:58:58;;;;;;;5.60;3.78;;;5.90;67.50;;;;;;5073721;28;20025;-69
2021/04/17 01:01:24;;;;;;;5.70;3.20;;;5.80;67.50;;;;;;5072365;28;20405;-69
2021/04/17 01:04:07;;;;;;;5.78;3.65;;;5.80;67.60;;;;;;5072218;28;20138;-70
2021/04/17 01:06:46;;;;;;;6.25;3.55;;;5.80;67.80;;;;;;5072206;28;20028;-70
2021/04/17 01:09:16;;;;;;;10.35;4.32;;;5.80;67.70;;;;;;5072815;28;20043;-70
2021/04/17 01:11:59;;;;;;;6.35;3.60;;;5.80;67.90;;;;;;5073333;28;20063;-70
2021/04/17 01:14:27;;;;;;;6.25;3.72;;;5.70;68.10;;;;;;5072009;28;20033;-69
2021/04/17 01:16:54;;;;;;;5.32;3.28;;;5.70;68.10;;;;;;5073306;28;20392;-70
2021/04/17 01:19:50;;;;;;;6.95;3.40;;;5.70;68.10;;;;;;5072022;28;20509;-70
2021/04/17 01:22:22;;;;;;;8.25;3.35;;;5.60;68.90;;;;;;5072059;28;20033;-69
2021/04/17 01:25:01;;;;;;;6.20;3.40;;;5.60;68.60;;;;;;5073226;28;20021;-70
2021/04/17 01:27:28;;;;;;;4.88;2.85;;;5.60;68.70;;;;;;5071994;28;20116;-69
2021/04/17 01:29:54;;;;;;;6.18;3.80;;;5.60;68.60;;;;;;5072899;28;20033;-70
2021/04/17 01:32:20;;;;;;;6.50;3.35;;;5.60;69.00;;;;;;5071717;28;20039;-70
2021/04/17 01:34:47;;;;;;;6.13;3.30;;;5.50;68.90;;;;;;5072871;28;20484;-70
2021/04/17 01:37:13;;;;;;;5.60;3.03;;;5.50;69.00;;;;;;5072938;28;20107;-70
2021/04/17 01:39:40;;;;;;;7.97;3.47;;;5.50;69.20;;;;;;5072989;28;20103;-69
2021/04/17 01:42:09;;;;;;;5.90;3.08;;;5.50;69.60;;;;;;5071671;28;20032;-70
2021/04/17 01:44:40;;;;;;;9.98;3.20;;;5.40;69.40;;;;;;5071641;28;20028;-70
2021/04/17 01:47:09;;;;;;;7.35;3.65;;;5.50;70.10;;;;;;5071520;28;20028;-70
2021/04/17 01:49:41;;;;;;;8.18;3.50;;;5.40;69.80;;;;;;5071364;28;20060;-70
2021/04/17 01:52:10;;;;;;;7.43;3.58;;;5.40;69.70;;;;;;5072757;28;20468;-70
2021/04/17 01:54:49;;;;;;;7.45;3.70;;;5.40;70.00;;;;;;5072899;28;20107;-70
2021/04/17 01:57:21;;;;;;;5.63;3.28;;;5.40;70.00;;;;;;5072954;28;20032;-70
2021/04/17 01:59:48;;;;;;;7.20;3.40;;;5.40;70.20;;;;;;5071446;28;20074;-70
2021/04/17 02:02:16;;;;;;;6.50;3.53;;;5.30;70.30;;;;;;5073009;28;20035;-70
2021/04/17 02:04:42;;;;;;;5.60;3.30;;;5.30;70.30;;;;;;5072719;28;20028;-70
2021/04/17 02:07:08;;;;;;;6.57;3.30;;;5.30;70.20;;;;;;5071210;28;20033;-70
2021/04/17 02:09:33;;;;;;;5.82;3.63;;;5.30;70.30;;;;;;5071134;28;20257;-70
2021/04/17 02:11:59;;;;;;;6.63;3.38;;;5.30;70.70;;;;;;5072975;28;20036;-70
2021/04/17 02:14:25;;;;;;;5.00;3.08;;;5.30;70.60;;;;;;5071343;28;20020;-70
2021/04/17 02:16:57;;;;;;;8.50;3.50;;;5.20;70.50;;;;;;5071219;28;20029;-70
2021/04/17 02:19:32;;;;;;;6.03;3.00;;;5.30;70.80;;;;;;5072606;28;20399;-69
2021/04/17 02:21:59;;;;;;;5.13;2.85;;;5.30;70.90;;;;;;5074787;28;20104;-70
2021/04/17 02:24:29;;;;;;;6.80;3.03;;;5.20;71.00;;;;;;5075459;28;20034;-69
2021/04/17 02:26:56;;;;;;;7.20;3.15;;;5.20;71.00;;;;;;5076969;28;20035;-69
2021/04/17 02:29:23;;;;;;;6.25;2.78;;;5.20;71.00;;;;;;5075552;28;20027;-70
2021/04/17 02:31:49;;;;;;;7.90;3.33;;;5.20;70.90;;;;;;5075211;28;20025;-70
2021/04/17 02:34:16;;;;;;;7.30;3.38;;;5.20;71.10;;;;;;5075117;28;20056;-70
2021/04/17 02:36:43;;;;;;;7.18;3.30;;;5.20;71.30;;;;;;5075227;28;20097;-70
2021/04/17 02:39:09;;;;;;;7.18;3.00;;;5.20;71.20;;;;;;5076503;28;20514;-70
2021/04/17 02:41:37;;;;;;;6.40;3.20;;;5.20;71.20;;;;;;5075078;28;20032;-69
2021/04/17 02:44:03;;;;;;;6.82;3.38;;;5.10;71.40;;;;;;5076359;28;20029;-70
2021/04/17 02:46:30;;;;;;;7.50;3.53;;;5.10;71.20;;;;;;5075022;28;20484;-70
2021/04/17 02:48:56;;;;;;;5.75;3.22;;;5.10;71.30;;;;;;5074849;28;20033;-70
2021/04/17 02:51:22;;;;;;;5.20;3.22;;;5.10;71.50;;;;;;5076026;28;20032;-69
2021/04/17 02:53:48;;;;;;;6.82;3.45;;;5.10;71.50;;;;;;5074820;28;20028;-70
2021/04/17 02:56:14;;;;;;;5.25;3.00;;;5.10;71.60;;;;;;5076375;28;20456;-70
2021/04/17 02:58:40;;;;;;;10.20;4.47;;;5.10;71.60;;;;;;5074744;28;20028;-70
2021/04/17 03:01:05;;;;;;;7.55;3.20;;;5.10;71.80;;;;;;5076342;28;20033;-69
2021/04/17 03:03:31;;;;;;;6.28;3.10;;;5.00;71.90;;;;;;5075069;28;20422;-70
2021/04/17 03:05:57;;;;;;;10.43;3.33;;;5.00;71.90;;;;;;5076281;28;20051;-69
2021/04/17 03:08:23;;;;;;;6.15;2.85;;;5.00;72.10;;;;;;5074744;28;20416;-70
2021/04/17 03:10:48;;;;;;;6.90;3.30;;;5.00;72.00;;;;;;5074568;28;20107;-69
2021/04/17 03:13:14;;;;;;;5.68;2.80;;;5.00;72.50;;;;;;5075782;28;20020;-70
2021/04/17 03:15:40;;;;;;;7.38;3.33;;;5.00;72.40;;;;;;5075706;28;20069;-69
2021/04/17 03:18:06;;;;;;;4.82;2.90;;;4.90;72.50;;;;;;5076290;28;20380;-69
2021/04/17 03:20:32;;;;;;;6.38;3.08;;;4.90;72.70;;;;;;5075561;28;20028;-70
2021/04/17 03:22:58;;;;;;;7.88;3.17;;;4.90;72.70;;;;;;5075481;28;20051;-69
2021/04/17 03:25:23;;;;;;;6.18;2.92;;;4.90;72.80;;;;;;5075443;28;20044;-69
2021/04/17 03:27:49;;;;;;;5.57;2.78;;;4.90;72.90;;;;;;5074223;28;20032;-69
2021/04/17 03:30:17;;;;;;;6.43;2.80;;;4.80;73.00;;;;;;5075388;28;20435;-69
2021/04/17 03:32:44;;;;;;;4.80;3.00;;;4.80;73.20;;;;;;5073667;28;20033;-71
2021/04/17 03:35:12;;;;;;;7.85;3.30;;;4.80;73.30;;;;;;5075365;28;20037;-69
2021/04/17 03:37:40;;;;;;;8.15;2.78;;;4.80;73.50;;;;;;5073929;28;20035;-69
2021/04/17 03:40:08;;;;;;;6.70;3.13;;;4.80;73.70;;;;;;5074026;28;20101;-70
2021/04/17 03:42:34;;;;;;;5.68;2.90;;;4.80;73.70;;;;;;5073936;28;20024;-69
2021/04/17 03:45:00;;;;;;;7.90;3.05;;;4.80;74.10;;;;;;5074329;28;20111;-69
2021/04/17 03:47:26;;;;;;;5.78;3.03;;;4.80;74.20;;;;;;5075461;28;20387;-69
2021/04/17 03:49:52;;;;;;;6.93;2.83;;;4.80;74.30;;;;;;5075133;28;20038;-69
2021/04/17 03:52:18;;;;;;;4.72;2.67;;;4.80;74.50;;;;;;5073687;28;20024;-70
2021/04/17 03:54:43;;;;;;;7.40;3.10;;;4.80;74.60;;;;;;5073248;28;20055;-69
2021/04/17 03:57:09;;;;;;;6.53;2.63;;;4.80;74.50;;;;;;5075397;28;20028;-69
2021/04/17 03:59:35;;;;;;;5.10;2.40;;;4.80;74.50;;;;;;5074962;28;20067;-69
2021/04/17 04:02:01;;;;;;;8.27;2.80;;;4.80;74.50;;;;;;5073678;28;20078;-69
2021/04/17 04:04:26;;;;;;;5.28;2.75;;;4.80;74.50;;;;;;5075144;28;20029;-69
2021/04/17 04:06:52;;;;;;;5.28;2.30;;;4.80;74.70;;;;;;5073528;28;20348;-69
2021/04/17 04:09:18;;;;;;;4.15;2.50;;;4.80;74.60;;;;;;5074789;28;20056;-69
2021/04/17 04:11:44;;;;;;;6.07;2.65;;;4.80;74.80;;;;;;5074907;28;20025;-69
2021/04/17 04:14:09;;;;;;;7.03;3.00;;;4.80;74.90;;;;;;5073684;28;20086;-69
2021/04/17 04:16:35;;;;;;;8.05;3.13;;;4.80;75.10;;;;;;5073536;28;20017;-70
2021/04/17 04:19:01;;;;;;;9.25;3.63;;;4.80;75.10;;;;;;5073244;28;20028;-69
2021/04/17 04:21:26;;;;;;;4.15;2.58;;;4.80;75.20;;;;;;5073313;28;20040;-70
2021/04/17 04:23:52;;;;;;;8.50;3.13;;;4.80;75.40;;;;;;5073156;28;20124;-69
2021/04/17 04:26:18;;;;;;;4.90;2.83;;;4.80;75.50;;;;;;5073145;28;20410;-70
2021/04/17 04:28:44;;;;;;;6.18;3.08;;;4.80;75.40;;;;;;5074339;28;20029;-70
2021/04/17 04:31:09;;;;;;;5.55;3.05;;;4.80;75.50;;;;;;5074142;28;20063;-70
2021/04/17 04:33:35;;;;;;;6.25;2.97;;;4.80;75.70;;;;;;5072760;28;20044;-70
2021/04/17 04:36:01;;;;;;;4.93;2.80;;;4.80;75.60;;;;;;5073805;28;20072;-70
2021/04/17 04:38:26;;;;;;;5.70;2.83;;;4.80;75.60;;;;;;5072894;28;20115;-69
2021/04/17 04:40:52;;;;;;;5.63;2.83;;;4.80;75.70;;;;;;5072700;28;20033;-69
2021/04/17 04:43:18;;;;;;;3.53;2.58;;;4.80;75.70;;;;;;5073976;28;20029;-69
2021/04/17 04:45:44;;;;;;;4.85;3.13;;;4.80;75.60;;;;;;5073533;28;20032;-69
2021/04/17 04:48:10;;;;;;;6.38;2.67;;;4.80;75.70;;;;;;5073902;28;20033;-70
2021/04/17 04:50:39;;;;;;;5.35;2.72;;;4.90;75.70;;;;;;5072375;28;20044;-70
2021/04/17 04:53:05;;;;;;;5.20;2.92;;;4.90;75.80;;;;;;5072511;28;20052;-70
2021/04/17 04:55:31;;;;;;;6.13;2.92;;;4.90;75.90;;;;;;5072257;28;20040;-69
2021/04/17 04:57:57;;;;;;;4.80;2.60;;;4.80;76.10;;;;;;5072193;28;20375;-70
2021/04/17 05:00:23;;;;;;;7.13;3.10;;;4.90;76.20;;;;;;5073766;28;20111;-70
2021/04/17 05:02:49;;;;;;;5.80;3.08;;;4.90;76.30;;;;;;5073335;28;20497;-69
2021/04/17 05:05:16;;;;;;;6.00;2.60;;;4.90;76.30;;;;;;5071931;28;20020;-69
2021/04/17 05:07:42;;;;;;;6.38;3.00;;;4.90;76.30;;;;;;5071965;28;20029;-70
2021/04/17 05:10:09;;;;;;;7.07;3.00;;;4.90;76.40;;;;;;5073272;28;20039;-69
2021/04/17 05:12:35;;;;;;;5.70;2.72;;;4.90;76.40;;;;;;5071900;28;20036;-70
2021/04/17 05:15:00;;;;;;;8.82;3.10;;;5.00;76.50;;;;;;5072032;28;20032;-69
2021/04/17 05:17:26;;;;;;;7.80;2.80;;;4.90;76.60;;;;;;5071800;28;20024;-70
2021/04/17 05:19:54;;;;;;;9.43;3.22;;;5.00;76.70;;;;;;5071892;28;20024;-69
2021/04/17 05:22:20;;;;;;;7.53;2.97;;;5.00;77.00;;;;;;5071850;28;20391;-69
2021/04/17 05:24:46;;;;;;;10.93;3.03;;;5.00;77.20;;;;;;5073168;28;20020;-70
2021/04/17 05:27:12;;;;;;;5.22;2.63;;;5.00;77.60;;;;;;5071772;28;20090;-70
2021/04/17 05:29:38;;;;;;;5.35;2.85;;;5.00;77.30;;;;;;5071467;28;20105;-69
2021/04/17 05:32:05;;;;;;;6.78;3.08;;;5.10;77.70;;;;;;5071487;28;20472;-70
2021/04/17 05:34:31;;;;;;;7.05;3.00;;;5.10;77.90;;;;;;5071636;28;20403;-70
2021/04/17 05:36:57;;;;;;;5.47;3.10;;;5.10;77.80;;;;;;5071293;28;20020;-70
2021/04/17 05:39:23;;;;;;;5.57;2.65;;;5.10;77.70;;;;;;5073550;28;20029;-70
2021/04/17 05:41:48;;;;;;;5.80;2.88;;;5.20;77.90;;;;;;5071654;28;20401;-70
2021/04/17 05:44:14;;;;;;;7.03;2.55;;;5.20;77.80;;;;;;5072789;28;20071;-70
2021/04/17 05:46:41;;;;;;;3.45;2.38;;;5.20;77.80;;;;;;5073423;28;20028;-72
2021/04/17 05:49:07;;;;;;;4.57;2.63;;;5.30;77.90;;;;;;5073322;28;20175;-71
2021/04/17 05:51:35;;;;;;;4.68;2.17;;;5.30;77.50;;;;;;5071395;28;20445;-71
2021/04/17 05:54:01;;;;;;;4.95;2.33;;;5.30;77.70;;;;;;5071363;28;20039;-70
2021/04/17 05:56:27;;;;;;;4.75;2.47;;;5.40;77.60;;;;;;5072615;28;20028;-70
2021/04/17 05:58:53;;;;;;;3.85;2.58;;;5.40;77.40;;;;;;5071245;28;20109;-70
2021/04/17 06:01:19;;;;;;;6.30;2.50;;;5.50;77.60;;;;;;5072627;28;20036;-70
2021/04/17 06:03:44;;;;;;;5.00;2.45;;;5.50;77.50;;;;;;5072565;28;20037;-70
2021/04/17 06:06:10;;;;;;;7.07;2.50;;;5.60;77.40;;;;;;5072987;28;20028;-70
2021/04/17 06:08:37;;;;;;;3.75;2.30;;;5.60;77.30;;;;;;5072429;28;20471;-70
2021/04/17 06:11:05;;;;;;;3.95;2.42;;;5.70;77.20;;;;;;5072728;28;20128;-70
2021/04/17 06:13:31;;;;;;;4.15;2.25;;;5.70;77.00;;;;;;5072541;28;20014;-70
2021/04/17 06:15:57;;;;;;;7.25;2.40;;;5.80;77.20;;;;;;5071225;28;20025;-71
2021/04/17 06:18:22;;;;;;;5.10;2.13;;;5.80;77.00;;;;;;5072629;28;20020;-71
2021/04/17 06:20:48;;;;;;;5.00;2.00;;;5.90;77.00;;;;;;5072525;28;20024;-70
2021/04/17 06:23:13;;;;;;;3.30;1.73;;;6.00;76.80;;;;;;5072653;28;20032;-70
2021/04/17 06:25:39;;;;;;;4.47;2.15;;;6.00;76.70;;;;;;5072237;28;20028;-70
2021/04/17 06:28:05;;;;;;;6.65;2.38;;;6.10;76.60;;;;;;5072468;28;20025;-70
2021/04/17 06:30:30;;;;;;;4.55;2.60;;;6.20;76.70;;;;;;5072396;28;20143;-71
2021/04/17 06:32:56;;;;;;;3.22;1.98;;;6.20;76.60;;;;;;5071138;28;20135;-69
2021/04/17 06:35:21;;;;;;;4.88;2.17;;;6.30;76.40;;;;;;5072085;28;20055;-70
2021/04/17 06:37:47;;;;;;;3.30;1.90;;;6.30;76.40;;;;;;5072248;28;20103;-70
2021/04/17 06:40:13;;;;;;;4.93;2.00;;;6.40;76.20;;;;;;5070978;28;20025;-70
2021/04/17 06:42:44;;;;;;;2.80;1.50;;;6.50;76.00;;;;;;5070743;28;20025;-70
2021/04/17 06:45:13;;;;;;;4.60;1.95;;;6.50;75.80;;;;;;5072409;28;20044;-68
2021/04/17 06:47:40;;;;;;;6.85;2.03;;;6.50;75.70;;;;;;5072112;28;20029;-70
2021/04/17 06:50:07;;;;;;;6.68;2.08;;;6.60;75.50;;;;;;5072216;28;20359;-69
2021/04/17 06:52:39;;;;;;;6.70;2.45;;;6.70;75.30;;;;;;5070938;28;20017;-70
2021/04/17 06:55:07;;;;;;;3.10;2.00;;;6.70;75.10;;;;;;5070814;28;20028;-69
2021/04/17 06:57:33;;;;;;;4.97;1.83;;;6.70;74.80;;;;;;5070715;28;20074;-70
2021/04/17 07:00:08;;;;;;;5.03;2.10;;;6.80;74.60;;;;;;5070744;28;20468;-70
2021/04/17 07:02:34;;;;;;;4.43;2.08;;;6.80;74.30;;;;;;5070676;28;20032;-70
2021/04/17 07:05:00;;;;;;;7.07;2.33;;;6.90;74.00;;;;;;5070598;28;20070;-70
2021/04/17 07:07:29;;;;;;;4.88;2.10;;;7.00;73.70;;;;;;5071697;28;20024;-69
2021/04/17 07:09:54;;;;;;;5.18;1.92;;;7.00;73.40;;;;;;5074231;28;20027;-69
2021/04/17 07:12:20;;;;;;;5.63;2.00;;;7.10;72.80;;;;;;5076051;28;20028;-70
2021/04/17 07:14:48;;;;;;;4.82;2.20;;;7.10;72.50;;;;;;5074037;28;20067;-70
2021/04/17 07:17:14;;;;;;;8.02;2.40;;;7.20;72.20;;;;;;5075655;28;20034;-70
2021/04/17 07:19:43;;;;;;;3.92;2.15;;;7.20;72.00;;;;;;5074365;28;20020;-70
2021/04/17 07:22:15;;;;;;;5.82;2.20;;;7.30;71.80;;;;;;5074395;28;20021;-70
2021/04/17 07:24:41;;;;;;;5.43;1.95;;;7.40;71.50;;;;;;5075608;28;20025;-72
2021/04/17 07:27:06;;;;;;;4.63;2.30;;;7.40;71.30;;;;;;5075474;28;20070;-70
2021/04/17 07:29:43;;;;;;;5.78;2.00;;;7.50;71.10;;;;;;5075180;28;20024;-71
2021/04/17 07:32:18;;;;;;;4.22;2.00;;;7.60;70.70;;;;;;5074096;28;20059;-71
2021/04/17 07:35:04;;;;;;;3.13;2.00;;;7.60;70.50;;;;;;5073775;28;20045;-70
2021/04/17 07:37:30;;;;;;;3.83;1.92;;;7.70;70.40;;;;;;5075414;28;20021;-70
2021/04/17 07:39:56;;;;;;;3.15;1.77;;;7.70;70.10;;;;;;5074056;28;20020;-70
2021/04/17 07:42:35;;;;;;;4.78;1.60;;;7.80;69.80;;;;;;5075732;28;20032;-70
2021/04/17 07:45:01;;;;;;;4.28;1.60;;;7.90;69.50;;;;;;5075138;28;20024;-70
2021/04/17 07:47:33;;;;;;;4.95;1.67;;;8.00;69.20;;;;;;5073866;28;20031;-70
2021/04/17 07:50:08;;;;;;;3.33;1.48;;;8.10;68.90;;;;;;5073984;28;20044;-70
2021/04/17 07:52:34;;;;;;;2.88;1.75;;;8.20;67.90;;;;;;5073898;28;20040;-70
2021/04/17 07:55:00;;;;;;;5.18;1.70;;;8.30;67.90;;;;;;5073699;28;20059;-70
2021/04/17 07:57:33;;;;;;;2.80;1.50;;;8.30;66.90;;;;;;5075006;28;20049;-71
2021/04/17 07:59:59;;;;;;;2.90;1.73;;;8.40;66.60;;;;;;5074784;28;20028;-71
2021/04/17 08:02:26;;;;;;;5.85;1.58;;;8.50;66.10;;;;;;5073535;28;20029;-71
2021/04/17 08:04:54;;;;;;;3.30;1.50;;;8.50;66.20;;;;;;5074675;28;20024;-71
2021/04/17 08:07:23;;;;;;;4.03;1.75;;;8.60;65.60;;;;;;5074414;28;20039;-70
2021/04/17 08:09:50;;;;;;;6.75;1.77;;;8.60;65.40;;;;;;5073264;28;20055;-71
2021/04/17 08:12:19;;;;;;;2.25;1.52;;;8.70;65.30;;;;;;5073214;28;20025;-70
2021/04/17 08:14:45;;;;;;;3.38;1.35;;;8.70;65.20;;;;;;5073512;28;20450;-73
2021/04/17 08:17:10;;;;;;;3.70;1.40;;;8.80;65.20;;;;;;5074540;28;20164;-70
2021/04/17 08:19:38;;;;;;;2.63;1.42;;;8.90;65.10;;;;;;5073814;28;20033;-70
2021/04/17 08:22:04;;;;;;;2.53;1.50;;;9.00;64.40;;;;;;5074638;28;20083;-70
2021/04/17 08:24:30;;;;;;;2.20;1.40;;;9.10;64.20;;;;;;5073407;28;20023;-70
2021/04/17 08:26:58;;;;;;;4.75;1.60;;;9.20;63.90;;;;;;5072818;28;20455;-70
2021/04/17 08:29:50;;;;;;;4.28;1.55;;;9.30;62.90;;;;;;5073004;28;20028;-69
2021/04/17 08:32:30;;;;;;;2.85;1.38;;;9.40;63.00;;;;;;5074306;28;20032;-69
2021/04/17 08:35:00;;;;;;;6.80;1.48;;;9.50;62.60;;;;;;5072577;28;20146;-69
2021/04/17 08:37:26;;;;;;;3.80;1.50;;;9.50;61.60;;;;;;5074117;28;20021;-70
2021/04/17 08:39:55;;;;;;;3.88;1.80;;;9.60;61.00;;;;;;5072682;28;20020;-70
2021/04/17 08:42:46;;;;;;;2.85;1.50;;;9.60;60.80;;;;;;5072699;28;20488;-70
2021/04/17 08:45:17;;;;;;;2.20;1.23;;;9.70;60.80;;;;;;5073954;28;20029;-70
2021/04/17 08:47:52;;;;;;;2.22;1.30;;;9.70;60.90;;;;;;5074437;28;20043;-70
2021/04/17 08:50:37;;;;;;;4.03;1.27;;;9.90;60.90;;;;;;5072735;28;20353;-69
2021/04/17 08:53:11;;;;;;;3.67;1.40;;;10.00;60.30;;;;;;5072552;28;20025;-70
2021/04/17 08:55:37;;;;;;;3.65;1.45;;;10.00;59.90;;;;;;5072353;28;20472;-70
2021/04/17 08:58:18;;;;;;;4.43;1.30;;;10.10;59.10;;;;;;5073870;28;20059;-70
2021/04/17 09:01:05;;;;;;;1.52;1.33;;;10.20;58.90;;;;;;5072397;28;20074;-69
2021/04/17 09:03:43;;;;;;;1.65;1.15;;;10.30;58.10;;;;;;5074223;28;20048;-70
2021/04/17 09:06:29;;;;;;;5.72;1.67;;;10.40;57.20;;;;;;5072350;28;20052;-69
2021/04/17 09:09:17;;;;;;;3.22;1.63;;;10.40;56.00;;;;;;5071641;28;20115;-69
2021/04/17 09:11:51;;;;;;;3.55;1.60;;;10.50;56.90;;;;;;5073406;28;20143;-69
2021/04/17 09:14:26;;;;;;;3.88;1.60;;;10.50;56.00;;;;;;5072197;28;20035;-70
2021/04/17 09:16:53;;;;;;;3.42;1.70;;;10.50;55.20;;;;;;5072076;28;20033;-71
2021/04/17 09:19:40;;;;;;;3.55;1.67;;;10.60;54.50;;;;;;5073400;28;20028;-71
2021/04/17 09:22:31;;;;;;;4.70;1.70;;;10.60;52.80;;;;;;5072955;28;20046;-71
2021/04/17 09:25:02;;;;;;;6.40;2.13;;;10.70;53.90;;;;;;5072036;28;20472;-70
2021/04/17 09:27:36;;;;;;;4.70;2.35;;;10.80;51.80;;;;;;5071873;28;20085;-69
2021/04/17 09:30:22;;;;;;;3.70;2.00;;;10.80;52.40;;;;;;5071402;28;20455;-69
2021/04/17 09:32:50;;;;;;;3.33;2.03;;;10.90;52.20;;;;;;5072872;28;20025;-69
2021/04/17 09:35:30;;;;;;;3.03;1.90;;;10.90;51.10;;;;;;5072071;28;20045;-69
2021/04/17 09:38:05;;;;;;;2.80;1.80;;;11.00;50.80;;;;;;5073126;28;20018;-69
2021/04/17 09:40:36;;;;;;;4.75;2.30;;;11.10;50.30;;;;;;5071787;28;20077;-70
2021/04/17 09:43:03;;;;;;;3.42;1.60;;;11.20;50.30;;;;;;5071550;28;20021;-69
2021/04/17 09:45:34;;;;;;;5.28;1.92;;;11.30;50.90;;;;;;5071453;28;20395;-68
2021/04/17 09:48:05;;;;;;;2.58;1.73;;;11.40;50.30;;;;;;5071536;28;20070;-68
2021/04/17 09:50:32;;;;;;;4.70;2.00;;;11.50;50.30;;;;;;5071690;28;20104;-70
2021/04/17 09:53:09;;;;;;;4.25;1.90;;;11.70;50.10;;;;;;5073007;28;20024;-70
2021/04/17 09:55:48;;;;;;;4.93;1.88;;;11.80;50.50;;;;;;5071984;28;20498;-69
2021/04/17 09:58:21;;;;;;;3.90;1.88;;;11.90;50.10;;;;;;5073026;28;20104;-69
2021/04/17 10:00:47;;;;;;;4.22;1.90;;;12.00;49.80;;;;;;5071586;28;20391;-68
2021/04/17 10:03:13;;;;;;;3.00;1.75;;;12.20;49.60;;;;;;5073006;28;20104;-69
2021/04/17 10:05:38;;;;;;;4.40;2.10;;;12.20;49.90;;;;;;5071573;28;20060;-69
2021/04/17 10:08:04;;;;;;;4.07;1.60;;;12.30;49.50;;;;;;5072909;28;20074;-69
2021/04/17 10:10:35;;;;;;;2.25;1.70;;;12.40;49.70;;;;;;5071402;28;20104;-69
2021/04/17 10:13:01;;;;;;;6.82;2.50;;;12.50;50.10;;;;;;5071364;28;20449;-70
2021/04/17 10:15:37;;;;;;;5.00;2.20;;;12.60;49.20;;;;;;5072762;28;20059;-71
2021/04/17 10:18:04;;;;;;;4.40;2.35;;;12.60;49.60;;;;;;5071437;28;20021;-70
2021/04/17 10:20:30;;;;;;;4.93;2.17;;;12.70;49.80;;;;;;5071399;28;20169;-70
2021/04/17 10:23:01;;;;;;;5.07;2.00;;;12.70;50.40;;;;;;5072728;28;20386;-70
2021/04/17 10:25:41;;;;;;;7.90;2.40;;;12.70;49.80;;;;;;5072773;28;20052;-70
2021/04/17 10:28:24;;;;;;;3.80;1.85;;;12.70;49.80;;;;;;5071168;28;20039;-70
2021/04/17 10:30:55;;;;;;;3.25;1.85;;;12.80;50.00;;;;;;5072441;28;20032;-70
2021/04/17 10:33:24;;;;;;;5.15;1.90;;;12.90;50.20;;;;;;5071213;28;20059;-70
2021/04/17 10:35:51;;;;;;;7.47;2.20;;;12.90;50.00;;;;;;5072407;28;20068;-70
2021/04/17 10:38:28;;;;;;;6.82;2.38;;;13.00;49.90;;;;;;5071418;28;20044;-70
2021/04/17 10:40:56;;;;;;;6.03;2.13;;;13.10;48.60;;;;;;5071066;28;20017;-69
2021/04/17 10:43:22;;;;;;;4.30;2.08;;;13.00;49.10;;;;;;5074082;28;20028;-70
2021/04/17 10:45:54;;;;;;;6.65;2.13;;;12.90;49.20;;;;;;5076521;28;20177;-69
2021/04/17 10:48:24;;;;;;;6.80;1.80;;;12.80;49.00;;;;;;5075013;28;20352;-68
2021/04/17 10:51:07;;;;;;;5.40;1.92;;;12.80;49.10;;;;;;5074881;28;20033;-70
2021/04/17 10:53:38;;;;;;;3.78;1.95;;;12.90;48.80;;;;;;5076759;28;20464;-70
2021/04/17 10:56:17;;;;;;;3.40;2.00;;;13.00;48.80;;;;;;5076164;28;20168;-69
2021/04/17 10:58:44;;;;;;;3.78;1.90;;;13.00;48.30;;;;;;5076453;28;20103;-70
2021/04/17 11:01:21;;;;;;;4.18;2.33;;;13.00;48.50;;;;;;5074798;28;20031;-70
2021/04/17 11:04:00;;;;;;;5.78;2.20;;;13.00;48.10;;;;;;5074733;28;20024;-70
2021/04/17 11:06:32;;;;;;;4.25;2.05;;;13.10;47.80;;;;;;5074831;28;20115;-70
2021/04/17 11:09:04;;;;;;;4.10;2.38;;;13.10;48.00;;;;;;5075922;28;20422;-70
2021/04/17 11:11:30;;;;;;;6.05;2.00;;;13.00;47.20;;;;;;5075806;28;20059;-69
2021/04/17 11:13:57;;;;;;;5.38;2.20;;;12.80;46.70;;;;;;5074462;28;20087;-69
2021/04/17 11:16:45;;;;;;;2.95;2.00;;;12.70;46.80;;;;;;5076000;28;20384;-70
2021/04/17 11:19:34;;;;;;;3.20;1.83;;;12.70;47.20;;;;;;5074369;28;20065;-70
2021/04/17 11:22:15;;;;;;;3.42;2.08;;;12.70;47.70;;;;;;5075846;28;20074;-70
2021/04/17 11:25:04;;;;;;;4.28;2.25;;;12.80;47.80;;;;;;5074431;28;20017;-69
2021/04/17 11:27:33;;;;;;;6.65;1.95;;;13.00;47.70;;;;;;5074321;28;20027;-69
2021/04/17 11:30:01;;;;;;;4.15;1.92;;;13.10;47.90;;;;;;5074290;28;20028;-71
2021/04/17 11:32:27;;;;;;;4.55;2.10;;;13.30;47.40;;;;;;5074312;28;20464;-69
2021/04/17 11:34:53;;;;;;;4.47;2.08;;;13.40;47.60;;;;;;5075272;28;20045;-70
2021/04/17 11:37:19;;;;;;;6.05;1.80;;;13.60;47.40;;;;;;5074325;28;20025;-70
2021/04/17 11:39:45;;;;;;;3.28;1.92;;;13.70;47.10;;;;;;5074065;28;20111;-70
2021/04/17 11:42:11;;;;;;;5.43;1.70;;;13.70;46.70;;;;;;5075512;28;20029;-70
2021/04/17 11:44:38;;;;;;;4.22;2.10;;;13.80;47.00;;;;;;5074161;28;20031;-71
2021/04/17 11:47:03;;;;;;;4.72;2.03;;;14.00;46.60;;;;;;5074014;28;20020;-69
2021/04/17 11:49:29;;;;;;;4.85;1.77;;;14.10;46.60;;;;;;5074043;28;20171;-70
2021/04/17 11:51:55;;;;;;;6.15;2.33;;;14.10;46.50;;;;;;5073790;28;20028;-69
2021/04/17 11:54:20;;;;;;;4.45;2.00;;;14.20;46.00;;;;;;5073513;28;20051;-70
2021/04/17 11:56:46;;;;;;;3.92;1.83;;;14.10;45.60;;;;;;5074024;28;20107;-70
2021/04/17 11:59:12;;;;;;;3.50;2.00;;;14.00;45.90;;;;;;5075402;28;20021;-70
2021/04/17 12:01:37;;;;;;;6.28;1.90;;;13.90;46.20;;;;;;5075160;28;20535;-69
2021/04/17 12:04:03;;;;;;;5.15;2.92;;;13.90;46.40;;;;;;5075222;28;20361;-69
2021/04/17 12:06:29;;;;;;;6.07;2.70;;;14.00;46.60;;;;;;5075224;28;20027;-70
2021/04/17 12:08:59;;;;;;;4.03;2.00;;;14.00;46.00;;;;;;5073576;28;20053;-69
2021/04/17 12:11:25;;;;;;;4.72;1.90;;;14.00;45.40;;;;;;5073541;28;20070;-71
2021/04/17 12:13:52;;;;;;;3.10;1.70;;;14.00;45.40;;;;;;5074917;28;20024;-70
2021/04/17 12:16:18;;;;;;;4.90;1.88;;;14.10;45.00;;;;;;5074913;28;20495;-70
2021/04/17 12:18:45;;;;;;;3.65;1.85;;;14.30;44.40;;;;;;5073300;28;20409;-68
2021/04/17 12:21:11;;;;;;;4.45;2.10;;;14.20;44.30;;;;;;5073290;28;20044;-70
2021/04/17 12:23:38;;;;;;;4.28;1.92;;;14.10;44.80;;;;;;5073124;28;20031;-69
2021/04/17 12:26:03;;;;;;;3.15;2.22;;;14.20;45.20;;;;;;5075041;28;20024;-69
2021/04/17 12:28:29;;;;;;;4.25;2.05;;;14.40;45.10;;;;;;5074380;28;20020;-69
2021/04/17 12:30:57;;;;;;;4.28;2.28;;;14.40;45.00;;;;;;5074312;28;20040;-68
2021/04/17 12:33:24;;;;;;;4.32;2.20;;;14.50;44.60;;;;;;5074367;28;20074;-69
2021/04/17 12:35:52;;;;;;;5.13;2.20;;;14.30;44.90;;;;;;5074176;28;20430;-69
2021/04/17 12:38:18;;;;;;;4.57;2.10;;;14.30;45.50;;;;;;5072695;28;20024;-69
2021/04/17 12:40:44;;;;;;;3.45;2.10;;;14.30;45.70;;;;;;5073993;28;20115;-69
2021/04/17 12:43:13;;;;;;;5.75;2.20;;;14.50;45.80;;;;;;5072627;28;20028;-69
2021/04/17 12:45:39;;;;;;;5.80;2.20;;;14.60;46.00;;;;;;5072625;28;20063;-69
2021/04/17 12:48:06;;;;;;;2.92;1.98;;;14.80;45.90;;;;;;5073928;28;20040;-69
2021/04/17 12:50:33;;;;;;;4.22;1.80;;;14.90;45.20;;;;;;5072532;28;20020;-69
2021/04/17 12:52:58;;;;;;;5.15;2.15;;;14.80;45.10;;;;;;5072493;28;20388;-69
2021/04/17 12:55:24;;;;;;;4.65;2.25;;;14.70;44.50;;;;;;5072496;28;20024;-69
2021/04/17 12:57:50;;;;;;;5.60;2.13;;;14.60;44.70;;;;;;5073729;28;20499;-69
2021/04/17 13:00:17;;;;;;;4.13;1.92;;;14.60;45.00;;;;;;5073804;28;20025;-69